Terminal Aerodrome Forecast
Issued by NWS

Home | Current Version | Previous Version | Text Only | Print | Product List | Glossary On
Versions: 1 2 3 4 5 6 7 8 9 10 11 12 13 14 15 16 17 18 19 20 21
000
FTUS44 KMAF 070534
TAFCNM
TAF
KCNM 070534Z 0706/0806 34020G30KT P6SM FEW100
     FM071200 35012KT P6SM OVC019
     FM071600 03010KT P6SM SCT040=

USA.gov is the U.S. government's official web portal to all federal, state and local government web resources and services.